createdAt,value
2018-04-10T03:00:42.558Z,13.73
2018-04-10T03:03:11.644Z,13.60
2018-04-10T03:05:40.753Z,14.20
2018-04-10T03:08:09.826Z,15.50
2018-04-10T03:10:38.222Z,14.27
2018-04-10T03:13:06.563Z,14.37
2018-04-10T03:15:34.898Z,15.13
2018-04-10T03:18:03.206Z,15.23
2018-04-10T03:20:31.549Z,13.73
2018-04-10T03:26:01.096Z,16.23
2018-04-10T03:28:29.403Z,15.83
2018-04-10T03:33:58.369Z,15.50
2018-04-10T03:36:26.722Z,14.67
2018-04-10T03:38:55.027Z,15.00
2018-04-10T03:41:23.343Z,14.97
2018-04-10T03:43:51.663Z,16.03
2018-04-10T03:46:20.746Z,14.77
2018-04-10T03:48:49.096Z,14.30
2018-04-10T03:51:18.176Z,15.00
2018-04-10T03:53:46.515Z,14.93
2018-04-10T03:56:15.583Z,13.10
2018-04-10T03:58:43.917Z,14.53
2018-04-10T04:01:12.218Z,12.67
2018-04-10T04:03:40.560Z,13.67
2018-04-10T04:06:08.868Z,13.33
2018-04-10T04:08:37.198Z,15.07
2018-04-10T04:11:06.273Z,14.60
2018-04-10T04:13:34.718Z,14.37
2018-04-10T04:16:03.048Z,13.83
2018-04-10T04:21:47.879Z,14.13
2018-04-10T04:24:16.224Z,13.80
2018-04-10T04:26:44.538Z,14.40
2018-04-10T04:29:12.850Z,15.23
2018-04-10T04:31:41.397Z,15.53
2018-04-10T04:34:09.774Z,13.90
2018-04-10T04:36:38.138Z,13.47
2018-04-10T04:39:06.442Z,14.77
2018-04-10T04:41:34.771Z,14.90
2018-04-10T04:44:03.961Z,16.10
2018-04-10T04:46:32.319Z,14.60
2018-04-10T04:49:00.627Z,15.10
2018-04-10T04:51:29.723Z,15.97
2018-04-10T04:53:58.034Z,14.37
2018-04-10T04:56:26.361Z,15.70
2018-04-10T04:58:54.668Z,14.63
2018-04-10T05:01:23.002Z,14.43
2018-04-10T05:03:51.322Z,15.10
2018-04-10T05:06:19.661Z,14.87
2018-04-10T05:08:47.962Z,15.67
2018-04-10T05:11:16.333Z,15.73
2018-04-10T05:13:45.412Z,15.87
2018-04-10T05:16:13.719Z,15.50
2018-04-10T05:18:42.814Z,14.30
2018-04-10T05:21:11.123Z,15.03
2018-04-10T05:23:39.460Z,16.27
2018-04-10T05:26:08.536Z,13.80
2018-04-10T05:28:36.871Z,13.67
2018-04-10T05:31:05.205Z,12.67
2018-04-10T05:33:34.302Z,14.00
2018-04-10T05:36:03.579Z,12.83
2018-04-10T05:38:31.910Z,13.53
2018-04-10T05:41:00.219Z,14.50
2018-04-10T05:43:28.552Z,12.93
2018-04-10T05:45:56.874Z,13.43
2018-04-10T05:48:25.221Z,13.43
2018-04-10T05:50:53.530Z,15.00
2018-04-10T05:53:21.859Z,15.40
2018-04-10T05:55:50.942Z,12.73
2018-04-10T05:58:20.031Z,12.60
2018-04-10T06:00:49.113Z,13.13
2018-04-10T06:03:17.444Z,13.67
2018-04-10T06:05:45.764Z,14.10
2018-04-10T06:08:14.075Z,12.90
2018-04-10T06:10:43.190Z,13.57
2018-04-10T06:13:11.498Z,15.70
2018-04-10T06:15:40.599Z,14.63
2018-04-10T06:18:09.690Z,14.73
2018-04-10T06:20:38.789Z,14.70
2018-04-10T06:23:07.866Z,17.27
2018-04-10T06:25:36.220Z,17.80
2018-04-10T06:28:04.534Z,17.03
2018-04-10T06:30:32.870Z,18.23
2018-04-10T06:33:02.129Z,18.20
2018-04-10T06:35:30.470Z,17.20
2018-04-10T06:37:58.793Z,16.30
2018-04-10T06:40:27.107Z,15.20
2018-04-10T06:42:55.447Z,15.20
2018-04-10T06:45:23.762Z,14.40
2018-04-10T06:47:52.103Z,13.53
2018-04-10T06:50:20.441Z,13.17
2018-04-10T06:52:48.804Z,12.00
2018-04-10T06:55:17.138Z,11.60
2018-04-10T06:57:45.480Z,11.50
2018-04-10T07:00:13.791Z,11.40
2018-04-10T07:02:42.131Z,12.03
2018-04-10T07:05:10.447Z,11.70
2018-04-10T07:07:38.790Z,11.73
2018-04-10T07:10:07.104Z,12.73
2018-04-10T07:12:35.438Z,12.30
2018-04-10T07:15:03.780Z,11.27
2018-04-10T07:17:32.886Z,12.87
2018-04-10T07:20:01.299Z,12.73
2018-04-10T07:22:29.627Z,12.60
2018-04-10T07:24:58.739Z,13.90
2018-04-10T07:27:27.825Z,11.80
2018-04-10T07:29:56.927Z,14.17
2018-04-10T07:32:26.016Z,13.40
2018-04-10T07:34:55.120Z,13.30
2018-04-10T07:37:24.208Z,12.50
2018-04-10T07:39:52.608Z,12.87
2018-04-10T07:42:21.676Z,13.37
2018-04-10T07:44:50.944Z,13.70
2018-04-10T07:47:19.378Z,13.27
2018-04-10T07:49:47.728Z,12.00
2018-04-10T07:52:16.052Z,12.40
2018-04-10T07:54:44.392Z,12.50
2018-04-10T07:57:13.522Z,12.23
2018-04-10T07:59:41.834Z,13.10
2018-04-10T08:02:10.172Z,12.73
2018-04-10T08:04:38.502Z,13.27
2018-04-10T08:07:06.844Z,12.00
2018-04-10T08:09:35.158Z,13.73
2018-04-10T08:12:03.529Z,13.10
2018-04-10T08:14:31.846Z,14.23
2018-04-10T08:17:00.961Z,13.40
2018-04-10T08:19:29.299Z,13.60
2018-04-10T08:21:57.634Z,14.17
2018-04-10T08:24:25.946Z,11.70
2018-04-10T08:26:54.283Z,10.90
2018-04-10T08:29:22.597Z,10.10
2018-04-10T08:31:50.931Z,10.03
2018-04-10T08:34:19.243Z,10.93
2018-04-10T08:36:47.594Z,10.43
2018-04-10T08:39:15.911Z,9.50
2018-04-10T08:41:44.235Z,10.00
2018-04-10T08:44:12.561Z,9.77
2018-04-10T08:46:40.894Z,9.70
2018-04-10T08:49:09.220Z,9.90
2018-04-10T08:51:37.568Z,9.37
2018-04-10T08:54:05.874Z,9.97
2018-04-10T08:56:34.190Z,10.93
2018-04-10T08:59:02.540Z,10.90
2018-04-10T09:01:30.846Z,9.97
2018-04-10T09:03:59.945Z,9.70
2018-04-10T09:06:28.251Z,9.60
2018-04-10T09:08:56.586Z,10.90
2018-04-10T09:11:25.673Z,9.13
2018-04-10T09:13:54.003Z,8.80
2018-04-10T09:16:22.310Z,9.73
2018-04-10T09:18:50.638Z,9.93
2018-04-10T09:21:18.956Z,9.13
2018-04-10T09:23:47.296Z,9.43
2018-04-10T09:26:15.604Z,9.27
2018-04-10T09:28:43.940Z,9.27
2018-04-10T09:31:12.294Z,8.83
2018-04-10T09:33:40.624Z,8.33
2018-04-10T09:36:08.932Z,9.40
2018-04-10T09:38:37.343Z,8.70
2018-04-10T09:41:06.423Z,7.23
2018-04-10T09:43:35.555Z,8.70
2018-04-10T09:46:03.862Z,8.37
2018-04-10T09:48:32.194Z,8.33
2018-04-10T09:51:01.316Z,8.23
2018-04-10T09:53:29.622Z,8.37
2018-04-10T09:55:57.950Z,7.70
2018-04-10T09:58:27.034Z,8.40
2018-04-10T10:00:56.126Z,7.20
2018-04-10T10:03:25.208Z,6.10
2018-04-10T10:05:53.536Z,6.97
2018-04-10T10:08:21.852Z,7.50
2018-04-10T10:10:50.182Z,6.77
2018-04-10T10:13:18.532Z,6.30
2018-04-10T10:15:46.861Z,7.33
2018-04-10T10:18:15.174Z,7.83
2018-04-10T10:20:43.496Z,6.57
2018-04-10T10:23:11.801Z,5.73
2018-04-10T10:25:40.123Z,6.00
2018-04-10T10:28:09.206Z,6.80
2018-04-10T10:30:37.551Z,8.07
2018-04-10T10:33:05.856Z,7.73
2018-04-10T10:35:34.191Z,6.67
2018-04-10T10:38:02.499Z,9.03
2018-04-10T10:40:30.863Z,7.07
2018-04-10T10:42:59.176Z,7.97
2018-04-10T10:45:27.506Z,8.53
2018-04-10T10:47:55.838Z,7.70
2018-04-10T10:50:24.911Z,7.07
2018-04-10T10:52:53.242Z,7.33
2018-04-10T10:55:21.570Z,8.27
2018-04-10T10:57:49.904Z,8.13
2018-04-10T11:00:19.146Z,6.93
2018-04-10T11:02:47.474Z,7.50
2018-04-10T11:05:15.791Z,8.10
2018-04-10T11:07:44.119Z,8.00
2018-04-10T11:10:12.422Z,7.50
2018-04-10T11:12:40.753Z,7.07
2018-04-10T11:15:09.067Z,7.40
2018-04-10T11:17:37.413Z,7.17
2018-04-10T11:20:05.723Z,8.03
2018-04-10T11:22:34.050Z,8.20
2018-04-10T11:25:02.375Z,7.57
2018-04-10T11:27:30.711Z,7.33
2018-04-10T11:29:59.032Z,6.23
2018-04-10T11:32:27.372Z,6.60
2018-04-10T11:34:55.679Z,6.73
2018-04-10T11:37:24.020Z,8.40
2018-04-10T11:39:52.331Z,7.63
2018-04-10T11:42:20.659Z,5.67
2018-04-10T11:44:49.058Z,5.23
2018-04-10T11:47:17.401Z,5.10
2018-04-10T11:49:45.702Z,5.80
2018-04-10T11:52:14.005Z,4.93
2018-04-10T11:54:43.147Z,4.60
2018-04-10T11:57:11.457Z,4.53
2018-04-10T11:59:39.788Z,5.20
2018-04-10T12:02:08.094Z,4.40
2018-04-10T12:04:36.424Z,6.00
2018-04-10T12:07:05.496Z,5.53
2018-04-10T12:09:33.906Z,5.30
2018-04-10T12:12:02.212Z,5.50
2018-04-10T12:14:30.535Z,6.03
2018-04-10T12:16:58.847Z,7.20
2018-04-10T12:19:27.183Z,5.63
2018-04-10T12:21:55.490Z,5.80
2018-04-10T12:24:23.832Z,6.47
2018-04-10T12:26:52.138Z,6.50
2018-04-10T12:29:21.236Z,7.00
2018-04-10T12:31:50.310Z,8.87
2018-04-10T12:34:18.646Z,8.30
2018-04-10T12:36:46.955Z,9.10
2018-04-10T12:39:15.297Z,6.60
2018-04-10T12:41:43.608Z,6.83
2018-04-10T12:44:11.946Z,6.70
2018-04-10T12:46:40.267Z,7.00
2018-04-10T12:49:08.607Z,6.20
2018-04-10T12:51:36.919Z,6.43
2018-04-10T12:54:05.255Z,6.40
2018-04-10T12:56:33.565Z,7.00
2018-04-10T12:59:01.879Z,6.70
2018-04-10T13:01:32.903Z,8.37
2018-04-10T13:04:01.215Z,7.43
2018-04-10T13:06:29.559Z,6.83
2018-04-10T13:08:57.870Z,6.80
2018-04-10T13:11:26.214Z,5.37
2018-04-10T13:13:54.583Z,5.57
2018-04-10T13:16:22.888Z,5.93
2018-04-10T13:18:51.963Z,5.90
2018-04-10T13:21:20.290Z,4.77
2018-04-10T13:23:48.599Z,5.20
2018-04-10T13:26:16.926Z,5.17
2018-04-10T13:28:45.246Z,5.13
2018-04-10T13:31:13.577Z,6.10
2018-04-10T13:33:42.647Z,5.60
2018-04-10T13:36:10.973Z,5.30
2018-04-10T13:38:39.290Z,4.87
2018-04-10T13:41:07.626Z,6.17
2018-04-10T13:43:35.946Z,5.40
2018-04-10T13:46:04.419Z,5.93
2018-04-10T13:48:32.738Z,4.73
2018-04-10T13:51:01.828Z,6.20
2018-04-10T13:53:30.902Z,4.40
2018-04-10T13:55:59.254Z,4.70
2018-04-10T13:58:27.556Z,5.70
2018-04-10T14:00:55.892Z,6.10
2018-04-10T14:03:24.211Z,5.87
2018-04-10T14:05:52.531Z,5.70
2018-04-10T14:08:20.858Z,4.90
2018-04-10T14:10:49.170Z,4.60
2018-04-10T14:13:20.350Z,5.43
2018-04-10T14:15:48.776Z,5.43
2018-04-10T14:18:17.120Z,5.30
2018-04-10T14:20:45.427Z,6.90
2018-04-10T14:23:13.771Z,7.40
2018-04-10T14:25:42.107Z,6.23
2018-04-10T14:28:12.226Z,7.13
2018-04-10T14:30:41.298Z,5.90
2018-04-10T14:33:09.627Z,6.63
2018-04-10T14:38:37.935Z,7.30
2018-04-10T14:41:06.250Z,6.67
2018-04-10T14:43:34.619Z,6.40
2018-04-10T14:46:02.931Z,8.77
2018-04-10T14:48:31.316Z,7.20
2018-04-10T14:51:00.434Z,7.80
2018-04-10T14:53:28.786Z,6.60
2018-04-10T14:55:57.858Z,6.50
2018-04-10T14:58:26.191Z,6.87
2018-04-10T15:00:54.502Z,7.83
2018-04-10T15:03:24.540Z,6.60
2018-04-10T15:05:52.847Z,7.13
2018-04-10T15:08:21.276Z,9.70
2018-04-10T15:10:49.578Z,8.30
2018-04-10T15:15:54.735Z,11.37
2018-04-10T15:18:23.104Z,12.10
2018-04-10T15:20:51.434Z,12.63
2018-04-10T15:23:19.752Z,13.10
2018-04-10T15:25:52.246Z,13.60
2018-04-10T15:28:21.324Z,13.60
2018-04-10T15:30:50.439Z,13.40
2018-04-10T15:33:19.524Z,15.17
2018-04-10T15:35:47.859Z,15.50
2018-04-10T15:38:16.246Z,14.03
2018-04-10T15:40:44.582Z,14.40
2018-04-10T15:43:12.902Z,14.67
2018-04-10T15:45:41.248Z,16.10
2018-04-10T15:48:09.559Z,14.10
2018-04-10T15:50:37.949Z,14.10
2018-04-10T15:53:06.257Z,15.60
2018-04-10T15:55:35.371Z,16.00
2018-04-10T15:58:03.715Z,15.30
2018-04-10T16:00:32.047Z,15.60
2018-04-10T16:03:00.369Z,14.87
2018-04-10T16:05:29.490Z,14.37
2018-04-10T16:07:58.566Z,14.57
2018-04-10T16:10:26.943Z,15.33
2018-04-10T16:12:55.255Z,16.73
2018-04-10T16:15:23.570Z,18.27
2018-04-10T16:17:51.911Z,17.60
2018-04-10T16:20:20.256Z,17.07
2018-04-10T16:22:48.598Z,15.83
2018-04-10T16:25:16.915Z,16.67
2018-04-10T16:27:45.242Z,15.77
2018-04-10T16:30:13.564Z,16.30
2018-04-10T16:32:41.930Z,17.40
2018-04-10T16:35:10.247Z,18.97
2018-04-10T16:37:39.354Z,17.10
2018-04-10T16:40:07.695Z,17.53
2018-04-10T16:42:36.815Z,14.43
2018-04-10T16:45:05.905Z,10.03
2018-04-10T16:47:35.089Z,9.43
2018-04-10T16:50:03.414Z,8.97
2018-04-10T16:52:31.765Z,6.40
2018-04-10T16:55:00.839Z,7.10
2018-04-10T16:57:29.171Z,4.70
2018-04-10T16:59:57.483Z,5.60
2018-04-10T17:02:25.845Z,4.77
2018-04-10T17:04:54.175Z,4.43
2018-04-10T17:07:23.263Z,4.63
2018-04-10T17:09:52.358Z,4.33
2018-04-10T17:12:23.368Z,4.83
2018-04-10T17:14:51.702Z,3.03
2018-04-10T17:17:20.171Z,4.00
2018-04-10T17:19:49.398Z,3.90
2018-04-10T17:22:17.710Z,3.00
2018-04-10T17:24:46.063Z,4.03
2018-04-10T17:27:27.549Z,3.90
2018-04-10T17:30:01.619Z,4.60
2018-04-10T17:32:29.954Z,4.60
2018-04-10T17:34:58.295Z,4.30
2018-04-10T17:37:26.599Z,3.77
2018-04-10T17:39:54.945Z,4.00
2018-04-10T17:42:23.265Z,4.10
2018-04-10T17:44:51.596Z,3.63
2018-04-10T17:47:19.903Z,4.07
2018-04-10T17:49:49.382Z,3.37
2018-04-10T17:52:17.690Z,3.70
2018-04-10T17:54:46.013Z,3.67
2018-04-10T17:57:15.080Z,2.97
2018-04-10T17:59:43.419Z,4.20
2018-04-10T18:02:11.718Z,4.43
2018-04-10T18:04:40.019Z,5.27
2018-04-10T18:07:08.346Z,6.80
2018-04-10T18:09:37.578Z,6.13
2018-04-10T18:12:05.911Z,4.73
2018-04-10T18:14:34.214Z,3.73
2018-04-10T18:17:02.552Z,4.20
2018-04-10T18:19:32.643Z,4.80
2018-04-10T18:22:00.973Z,4.67
2018-04-10T18:24:29.297Z,4.40
2018-04-10T18:26:58.395Z,5.50
2018-04-10T18:29:26.708Z,4.30
2018-04-10T18:31:55.811Z,5.70
2018-04-10T18:34:24.884Z,4.20
2018-04-10T18:36:53.223Z,4.00
2018-04-10T18:39:21.528Z,3.60
2018-04-10T18:41:50.830Z,2.50
2018-04-10T18:44:19.158Z,2.93
2018-04-10T18:46:47.500Z,2.63
2018-04-10T18:49:15.806Z,3.63
2018-04-10T18:51:44.134Z,3.80
2018-04-10T18:54:12.434Z,2.47
2018-04-10T18:56:41.524Z,2.40
2018-04-10T18:59:09.828Z,3.27
2018-04-10T19:01:38.162Z,3.50
2018-04-10T19:04:06.467Z,3.03
2018-04-10T19:06:35.599Z,3.90
2018-04-10T19:09:03.903Z,3.00
2018-04-10T19:11:32.207Z,3.43
2018-04-10T19:14:00.531Z,3.27
2018-04-10T19:16:28.838Z,3.30
2018-04-10T19:18:57.167Z,3.40
2018-04-10T19:21:25.470Z,3.13
2018-04-10T19:23:53.791Z,2.90
2018-04-10T19:26:24.605Z,4.60
2018-04-10T19:28:53.927Z,4.00
2018-04-10T19:31:22.246Z,3.40
2018-04-10T19:33:50.574Z,3.20
2018-04-10T19:36:18.877Z,3.40
2018-04-10T19:38:47.970Z,3.37
2018-04-10T19:41:17.048Z,2.93
2018-04-10T19:43:45.374Z,3.27
2018-04-10T19:46:13.682Z,3.07
2018-04-10T19:48:42.038Z,3.03
2018-04-10T19:51:10.334Z,3.30
2018-04-10T19:53:38.655Z,2.80
2018-04-10T19:56:07.722Z,2.43
2018-04-10T19:58:36.056Z,2.70
2018-04-10T20:01:04.358Z,3.03
2018-04-10T20:03:32.694Z,3.60
2018-04-10T20:06:01.012Z,2.67
2018-04-10T20:08:29.388Z,3.60
2018-04-10T20:10:57.665Z,3.23
2018-04-10T20:13:25.998Z,2.80
2018-04-10T20:15:55.062Z,3.50
2018-04-10T20:18:24.938Z,4.17
2018-04-10T20:20:53.238Z,3.47
2018-04-10T20:23:21.542Z,2.50
2018-04-10T20:25:49.867Z,2.17
2018-04-10T20:28:18.166Z,2.53
2018-04-10T20:30:46.523Z,3.40
2018-04-10T20:33:14.830Z,2.03
2018-04-10T20:35:43.151Z,1.80
2018-04-10T20:38:12.219Z,1.77
2018-04-10T20:40:40.543Z,2.27
2018-04-10T20:43:08.851Z,1.73
2018-04-10T20:45:37.175Z,1.90
2018-04-10T20:48:06.242Z,1.67
2018-04-10T20:50:34.577Z,1.67
2018-04-10T20:53:03.791Z,2.33
2018-04-10T20:55:32.123Z,2.10
2018-04-10T20:58:00.442Z,1.73
2018-04-10T21:00:28.780Z,1.63
2018-04-10T21:02:57.847Z,1.93
2018-04-10T21:05:26.198Z,1.83
2018-04-10T21:07:54.502Z,1.90
2018-04-10T21:10:22.842Z,2.57
2018-04-10T21:12:51.156Z,2.07
2018-04-10T21:15:19.515Z,2.00
2018-04-10T21:17:47.815Z,1.73
2018-04-10T21:20:16.163Z,1.90
2018-04-10T21:22:44.471Z,2.27
2018-04-10T21:25:12.792Z,3.20
2018-04-10T21:27:41.090Z,1.83
2018-04-10T21:30:09.418Z,1.93
2018-04-10T21:32:37.724Z,2.50
2018-04-10T21:35:06.071Z,3.00
2018-04-10T21:37:34.530Z,2.50
2018-04-10T21:40:02.868Z,2.90
2018-04-10T21:42:36.937Z,2.70
2018-04-10T21:45:05.280Z,2.83
2018-04-10T21:47:33.613Z,2.40
2018-04-10T21:50:02.694Z,2.50
2018-04-10T21:52:30.995Z,3.00
2018-04-10T21:54:59.338Z,2.23
2018-04-10T21:57:27.639Z,2.40
2018-04-10T21:59:56.710Z,2.90
2018-04-10T22:02:25.034Z,2.83
2018-04-10T22:04:53.339Z,2.27
2018-04-10T22:07:21.658Z,2.90
2018-04-10T22:09:50.787Z,2.77
2018-04-10T22:12:19.307Z,3.20
2018-04-10T22:14:48.371Z,2.80
2018-04-10T22:17:16.827Z,2.93
2018-04-10T22:19:45.903Z,2.83
2018-04-10T22:22:14.230Z,2.60
2018-04-10T22:24:42.544Z,3.33
2018-04-10T22:27:10.866Z,3.10
2018-04-10T22:29:39.171Z,3.70
2018-04-10T22:32:08.515Z,3.60
2018-04-10T22:34:36.790Z,3.10
2018-04-10T22:37:05.138Z,3.30
2018-04-10T22:39:33.605Z,4.20
2018-04-10T22:42:01.924Z,3.37
2018-04-10T22:44:30.233Z,3.30
2018-04-10T22:46:58.555Z,3.60
2018-04-10T22:49:26.861Z,3.57
